Time;durP1;ratioP1;P1;durP2;ratioP2;P2;SDS_P1;SDS_P2;PMS_P1;PMS_P2;Temp;Humidity;BMP_temperature;BMP_pressure;BME280_temperature;BME280_humidity;BME280_pressure;Samples;Min_cycle;Max_cycle;Signal;HPM_P1;HPM_P2
2021/04/21 00:02:19;;;;;;;10.45;7.63;;;256.60;2252.80;;;;;;5094437;28;20044;-81
2021/04/21 00:04:47;;;;;;;11.27;7.07;;;256.50;2252.80;;;;;;5094538;28;20044;-81
2021/04/21 00:07:23;;;;;;;16.08;12.73;;;256.40;2252.80;;;;;;5094133;28;20039;-81
2021/04/21 00:09:52;;;;;;;18.52;14.13;;;256.30;2252.80;;;;;;5093573;28;20028;-82
2021/04/21 00:12:21;;;;;;;14.65;11.52;;;256.30;2252.80;;;;;;5093323;28;20472;-84
2021/04/21 00:14:48;;;;;;;18.15;13.55;;;256.20;2252.80;;;;;;5092213;28;20020;-82
2021/04/21 00:17:14;;;;;;;22.42;16.42;;;256.20;2252.80;;;;;;5092934;28;20028;-81
2021/04/21 00:19:42;;;;;;;24.90;15.55;;;256.20;2252.80;;;;;;5092623;28;20024;-82
2021/04/21 00:22:10;;;;;;;25.23;15.70;;;256.10;2252.80;;;;;;5092083;28;20081;-80
2021/04/21 00:24:38;;;;;;;26.65;18.33;;;256.00;2252.80;;;;;;5093830;28;20020;-81
2021/04/21 00:27:06;;;;;;;26.10;16.80;;;256.10;2252.80;;;;;;5093361;28;20035;-83
2021/04/21 00:29:36;;;;;;;36.28;21.15;;;256.00;2252.80;;;;;;5092862;28;20061;-82
2021/04/21 00:32:03;;;;;;;31.83;19.83;;;256.00;2252.80;;;;;;5093183;28;20051;-81
2021/04/21 00:34:30;;;;;;;36.70;25.15;;;231.30;2252.80;;;;;;5092743;28;20035;-81
2021/04/21 00:36:57;;;;;;;43.22;26.77;;;231.20;2252.80;;;;;;5092622;28;20028;-81
2021/04/21 00:39:24;;;;;;;46.78;29.75;;;230.90;2252.80;;;;;;5093037;28;20024;-82
2021/04/21 00:42:17;;;;;;;40.55;25.17;;;231.20;2252.80;;;;;;5093083;28;20024;-81
2021/04/21 00:44:53;;;;;;;77.35;42.58;;;231.00;2252.80;;;;;;5093728;28;20039;-82
2021/04/21 00:47:38;;;;;;;67.03;39.55;;;231.00;2252.80;;;;;;5093020;28;20036;-80
2021/04/21 00:50:10;;;;;;;49.35;30.02;;;231.00;2252.80;;;;;;5092743;28;20380;-82
2021/04/21 00:52:52;;;;;;;36.25;22.70;;;230.90;2252.80;;;;;;5093413;28;20024;-81
2021/04/21 00:55:21;;;;;;;26.63;19.20;;;231.00;2252.80;;;;;;5093329;28;20459;-80
2021/04/21 00:58:11;;;;;;;24.65;17.20;;;230.90;2252.80;;;;;;5092572;28;20028;-82
2021/04/21 01:00:43;;;;;;;48.88;28.50;;;230.90;2252.80;;;;;;5092790;28;20021;-81
2021/04/21 01:03:10;;;;;;;41.75;26.92;;;230.90;2252.80;;;;;;5092618;28;20048;-80
2021/04/21 01:05:44;;;;;;;52.00;31.67;;;230.80;2252.80;;;;;;5092879;28;20047;-82
2021/04/21 01:08:13;;;;;;;30.17;19.27;;;230.80;2252.80;;;;;;5092950;28;20024;-81
2021/04/21 01:10:56;;;;;;;21.75;15.48;;;230.70;2252.80;;;;;;5092475;28;20030;-81
2021/04/21 01:13:25;;;;;;;39.78;26.08;;;230.50;2252.80;;;;;;5092699;28;20115;-82
2021/04/21 01:15:53;;;;;;;45.05;29.25;;;230.50;2252.80;;;;;;5092652;28;20537;-81
2021/04/21 01:18:20;;;;;;;83.07;49.50;;;230.40;2252.80;;;;;;5092395;28;20028;-81
2021/04/21 01:20:56;;;;;;;36.47;24.40;;;230.70;2252.80;;;;;;5092754;28;20028;-83
2021/04/21 01:23:32;;;;;;;26.77;18.95;;;230.50;2252.80;;;;;;5092877;28;20035;-83
2021/04/21 01:26:25;;;;;;;24.98;19.20;;;230.40;2252.80;;;;;;5092106;28;20125;-83
2021/04/21 01:28:54;;;;;;;30.73;21.48;;;205.70;2252.80;;;;;;5096577;28;20497;-84
2021/04/21 01:31:22;;;;;;;27.38;21.00;;;205.70;2252.80;;;;;;5096152;28;20043;-82
2021/04/21 01:33:51;;;;;;;23.77;18.75;;;205.60;2252.80;;;;;;5096896;28;20031;-83
2021/04/21 01:36:21;;;;;;;32.08;22.58;;;205.60;2252.80;;;;;;5096183;28;20032;-82
2021/04/21 01:38:48;;;;;;;29.08;21.92;;;205.40;2252.80;;;;;;5095658;28;20020;-82
2021/04/21 01:41:28;;;;;;;30.35;22.77;;;205.40;2252.80;;;;;;5096878;28;20352;-81
2021/04/21 01:43:59;;;;;;;31.38;22.92;;;205.40;2252.80;;;;;;5094678;28;20336;-82
2021/04/21 01:46:27;;;;;;;32.70;24.20;;;205.30;2252.80;;;;;;5112797;28;20127;-82
2021/04/21 01:49:05;;;;;;;37.72;26.52;;;205.20;2252.80;;;;;;5112234;28;20334;-81
2021/04/21 01:51:34;;;;;;;42.72;28.65;;;205.20;2252.80;;;;;;5112608;28;20032;-83
2021/04/21 01:54:14;;;;;;;39.80;28.23;;;205.00;2252.80;;;;;;5112125;28;20028;-82
2021/04/21 01:56:54;;;;;;;75.07;43.28;;;205.10;2252.80;;;;;;5112433;28;20059;-82
2021/04/21 01:59:35;;;;;;;116.00;58.97;;;205.00;2252.80;;;;;;5112572;28;20021;-81
2021/04/21 02:02:27;;;;;;;48.03;31.58;;;205.00;2252.80;;;;;;5096857;28;20052;-81
2021/04/21 02:04:58;;;;;;;48.25;30.92;;;205.00;2252.80;;;;;;5094898;28;20028;-81
2021/04/21 02:07:55;;;;;;;48.22;32.53;;;205.00;2252.80;;;;;;5111665;28;20044;-82
2021/04/21 02:10:23;;;;;;;60.28;38.30;;;205.00;2252.80;;;;;;5112702;28;20376;-82
2021/04/21 02:12:58;;;;;;;55.67;36.75;;;204.90;2252.80;;;;;;5111522;28;20474;-82
2021/04/21 02:15:42;;;;;;;52.05;34.72;;;204.80;2252.80;;;;;;5094173;28;20081;-83
2021/04/21 02:18:14;;;;;;;47.38;31.63;;;204.80;2252.80;;;;;;5095706;28;20028;-83
2021/04/21 02:21:05;;;;;;;46.83;31.23;;;179.80;2252.80;;;;;;5111864;28;20052;-82
2021/04/21 02:23:54;;;;;;;45.55;31.30;;;204.80;2252.80;;;;;;5099913;28;20357;-82
2021/04/21 02:26:42;;;;;;;45.10;31.08;;;180.10;2252.80;;;;;;5094751;28;20040;-82
2021/04/21 02:29:14;;;;;;;43.25;29.75;;;180.00;2252.80;;;;;;5094681;28;20055;-83
2021/04/21 02:32:00;;;;;;;48.05;32.53;;;179.90;2252.80;;;;;;5095318;28;20073;-84
2021/04/21 02:34:53;;;;;;;71.85;44.08;;;179.70;2252.80;;;;;;5095984;28;20541;-83
2021/04/21 02:37:43;;;;;;;67.40;39.17;;;179.70;2252.80;;;;;;5095099;28;20487;-83
2021/04/21 02:40:47;;;;;;;81.88;43.60;;;179.80;2252.80;;;;;;5095099;28;20036;-84
2021/04/21 02:43:26;;;;;;;;;;;179.80;2252.80;;;;;;5091043;28;20032;-83
2021/04/21 02:46:03;;;;;;;63.15;38.53;;;179.90;2252.80;;;;;;5094974;28;19919;-85
2021/04/21 02:49:03;;;;;;;60.20;34.50;;;179.90;2252.80;;;;;;5094627;28;20081;-83
2021/04/21 02:51:48;;;;;;;48.90;34.05;;;180.00;2252.80;;;;;;5094600;28;20081;-84
2021/04/21 02:54:51;;;;;;;41.85;29.08;;;180.00;2252.80;;;;;;5094936;28;20506;-83
2021/04/21 02:57:38;;;;;;;39.60;27.30;;;180.00;2252.80;;;;;;5096086;28;20070;-84
2021/04/21 03:00:14;;;;;;;34.22;24.40;;;180.00;2252.80;;;;;;5094899;28;20268;-83
2021/04/21 03:02:59;;;;;;;35.95;26.15;;;180.10;2252.80;;;;;;5094004;28;20040;-84
2021/04/21 03:05:28;;;;;;;35.53;28.10;;;180.10;2252.80;;;;;;5094311;28;20036;-83
2021/04/21 03:08:13;;;;;;;31.73;23.48;;;179.80;2252.80;;;;;;5094533;28;20070;-84
2021/04/21 03:10:46;;;;;;;27.70;21.63;;;179.50;2252.80;;;;;;5094438;28;20460;-84
2021/04/21 03:13:19;;;;;;;26.38;20.85;;;179.70;2252.80;;;;;;5093613;28;20028;-82
2021/04/21 03:15:52;;;;;;;31.50;23.90;;;179.40;2252.80;;;;;;5095834;28;20537;-83
2021/04/21 03:18:20;;;;;;;37.35;25.42;;;179.40;2252.80;;;;;;5094366;28;20099;-83
2021/04/21 03:21:10;;;;;;;41.63;29.38;;;179.50;2252.80;;;;;;5094184;28;20024;-82
2021/04/21 03:23:39;;;;;;;51.97;32.13;;;179.70;2252.80;;;;;;5092711;28;20051;-82
2021/04/21 03:26:06;;;;;;;54.95;35.42;;;179.80;2252.80;;;;;;5094851;28;20372;-83
2021/04/21 03:28:35;;;;;;;46.50;34.78;;;179.70;2252.80;;;;;;5094832;28;20024;-84
2021/04/21 03:31:06;;;;;;;58.70;40.45;;;179.60;2252.80;;;;;;5095076;28;20027;-83
2021/04/21 03:33:49;;;;;;;60.30;40.72;;;179.50;2252.80;;;;;;5111433;28;20036;-84
2021/04/21 03:36:18;;;;;;;77.28;47.45;;;179.50;2252.80;;;;;;5095312;28;20032;-82
2021/04/21 03:38:46;;;;;;;92.05;53.58;;;179.50;2252.80;;;;;;5110884;28;20367;-82
2021/04/21 03:41:12;;;;;;;103.32;62.22;;;179.60;2252.80;;;;;;5095205;28;20024;-81
2021/04/21 03:43:43;;;;;;;72.70;43.63;;;179.70;2252.80;;;;;;5092849;28;20031;-82
2021/04/21 03:46:12;;;;;;;43.53;29.40;;;179.70;2252.80;;;;;;5093563;28;20471;-83
2021/04/21 03:48:39;;;;;;;47.50;28.48;;;179.70;2252.80;;;;;;5092749;28;20051;-80
2021/04/21 03:51:06;;;;;;;44.50;28.83;;;179.70;2252.80;;;;;;5093494;28;20054;-82
2021/04/21 03:53:35;;;;;;;50.63;35.08;;;179.60;2252.80;;;;;;5094524;28;20483;-82
2021/04/21 03:56:02;;;;;;;52.90;35.65;;;179.50;2252.80;;;;;;5095152;28;20028;-84
2021/04/21 03:58:30;;;;;;;58.35;36.85;;;179.60;2252.80;;;;;;5094740;28;20132;-82
2021/04/21 04:01:19;;;;;;;48.75;32.55;;;179.60;2252.80;;;;;;5094878;28;20026;-83
2021/04/21 04:03:58;;;;;;;57.58;36.92;;;179.60;2252.80;;;;;;5095848;28;20101;-83
2021/04/21 04:06:33;;;;;;;73.05;47.03;;;179.60;2252.80;;;;;;5094697;28;20089;-82
2021/04/21 04:09:08;;;;;;;53.17;35.28;;;179.40;2252.80;;;;;;5094353;28;20174;-81
2021/04/21 04:11:46;;;;;;;44.30;31.20;;;179.50;2252.80;;;;;;5093458;28;20035;-83
2021/04/21 04:14:33;;;;;;;41.60;26.80;;;179.70;2252.80;;;;;;5093425;28;20024;-83
2021/04/21 04:17:01;;;;;;;41.72;28.73;;;179.60;2252.80;;;;;;5094182;28;20095;-82
2021/04/21 04:19:28;;;;;;;42.05;26.63;;;179.70;2252.80;;;;;;5092981;28;20024;-85
2021/04/21 04:22:02;;;;;;;42.47;30.83;;;179.80;2252.80;;;;;;5093847;28;20031;-83
2021/04/21 04:24:33;;;;;;;43.53;28.92;;;179.90;2252.80;;;;;;5093702;28;20036;-81
2021/04/21 04:27:01;;;;;;;61.75;40.13;;;179.80;2252.80;;;;;;5092961;28;20032;-82
2021/04/21 04:29:27;;;;;;;55.25;41.33;;;179.60;2252.80;;;;;;5093199;28;20468;-83
2021/04/21 04:31:55;;;;;;;90.93;66.45;;;179.60;2252.80;;;;;;5093677;28;20368;-82
2021/04/21 04:34:23;;;;;;;104.88;76.15;;;179.70;2252.80;;;;;;5092970;28;20047;-83
2021/04/21 04:36:50;;;;;;;74.95;52.42;;;179.80;2252.80;;;;;;5092979;28;20032;-82
2021/04/21 04:39:15;;;;;;;66.45;48.30;;;179.80;2252.80;;;;;;5093640;28;20368;-83
2021/04/21 04:41:42;;;;;;;60.72;41.95;;;179.70;2252.80;;;;;;5092712;28;20024;-84
2021/04/21 04:44:09;;;;;;;43.30;26.15;;;179.70;2252.80;;;;;;5094503;28;20024;-83
2021/04/21 04:46:45;;;;;;;36.63;24.60;;;179.60;2252.80;;;;;;5093053;28;20139;-83
2021/04/21 04:49:15;;;;;;;56.13;37.05;;;179.50;2252.80;;;;;;5094244;28;20460;-83
2021/04/21 04:51:44;;;;;;;47.40;30.98;;;179.50;2252.80;;;;;;5093341;28;20035;-84
2021/04/21 04:54:12;;;;;;;44.70;28.27;;;179.50;2252.80;;;;;;5093936;28;20082;-84
2021/04/21 04:56:41;;;;;;;52.60;35.10;;;179.50;2252.80;;;;;;5092786;28;20127;-83
2021/04/21 04:59:10;;;;;;;68.32;41.40;;;179.50;2252.80;;;;;;5093252;28;20024;-83
2021/04/21 05:01:52;;;;;;;50.20;32.30;;;179.60;2252.80;;;;;;5093027;28;20024;-83
2021/04/21 05:04:26;;;;;;;53.78;36.88;;;179.60;2252.80;;;;;;5098008;28;20054;-83
2021/04/21 05:07:02;;;;;;;48.38;33.90;;;179.60;2252.80;;;;;;5097509;28;20040;-84
2021/04/21 05:09:31;;;;;;;65.22;44.78;;;179.60;2252.80;;;;;;5096715;28;20020;-83
2021/04/21 05:11:58;;;;;;;77.50;45.72;;;179.70;2252.80;;;;;;5096898;28;20514;-84
2021/04/21 05:14:25;;;;;;;52.30;31.95;;;179.80;2252.80;;;;;;5096894;28;20069;-85
2021/04/21 05:16:57;;;;;;;45.35;30.60;;;179.80;2252.80;;;;;;5096512;28;20032;-83
2021/04/21 05:19:50;;;;;;;54.72;35.63;;;179.90;2252.80;;;;;;5096683;28;20119;-83
2021/04/21 05:22:54;;;;;;;46.72;30.63;;;179.80;2252.80;;;;;;5097819;28;20050;-84
2021/04/21 05:25:58;;;;;;;60.50;38.83;;;179.80;2252.80;;;;;;5092578;28;20449;-84
2021/04/21 05:28:42;;;;;;;59.80;42.38;;;179.70;2252.80;;;;;;5097167;28;20361;-83
2021/04/21 05:31:54;;;;;;;58.05;40.28;;;179.80;2252.80;;;;;;5096446;28;20028;-82
2021/04/21 05:34:39;;;;;;;92.35;55.70;;;179.90;2252.80;;;;;;5096502;28;20024;-82
2021/04/21 05:37:42;;;;;;;88.28;61.05;;;179.90;2252.80;;;;;;5097601;28;20387;-84
2021/04/21 05:40:36;;;;;;;64.15;42.25;;;179.90;2252.80;;;;;;5096060;28;20028;-83
2021/04/21 05:43:32;;;;;;;56.72;38.38;;;179.90;2252.80;;;;;;5096123;28;20035;-84
2021/04/21 05:46:35;;;;;;;67.38;46.22;;;180.10;2252.80;;;;;;5096189;28;20032;-85
2021/04/21 05:49:38;;;;;;;67.03;46.97;;;180.10;2252.80;;;;;;5096294;28;20103;-83
2021/04/21 05:52:16;;;;;;;55.65;40.83;;;180.10;2252.80;;;;;;5095330;28;20063;-83
2021/04/21 05:55:00;;;;;;;69.10;43.55;;;204.90;2252.80;;;;;;5095455;28;20028;-82
2021/04/21 05:57:57;;;;;;;66.75;47.75;;;205.10;2252.80;;;;;;5095474;28;20449;-82
2021/04/21 06:00:41;;;;;;;66.70;44.25;;;205.30;2252.80;;;;;;5096103;28;20463;-84
2021/04/21 06:03:07;;;;;;;40.95;30.48;;;205.40;2252.80;;;;;;5097271;28;20356;-84
2021/04/21 06:05:33;;;;;;;46.05;30.88;;;205.40;2252.80;;;;;;5095654;28;20456;-83
2021/04/21 06:08:12;;;;;;;84.95;52.10;;;205.40;2252.80;;;;;;5096124;28;20132;-85
2021/04/21 06:10:40;;;;;;;73.28;47.35;;;205.50;2252.80;;;;;;5095212;28;20475;-83
2021/04/21 06:13:07;;;;;;;76.53;49.10;;;205.60;2252.80;;;;;;5095975;28;20035;-84
2021/04/21 06:15:38;;;;;;;82.53;48.08;;;205.70;2252.80;;;;;;5095802;28;20111;-83
2021/04/21 06:18:09;;;;;;;74.95;50.30;;;205.70;2252.80;;;;;;5096819;28;20028;-84
2021/04/21 06:20:38;;;;;;;52.78;35.10;;;205.70;2252.80;;;;;;5096847;28;20107;-83
2021/04/21 06:23:19;;;;;;;57.05;37.63;;;230.40;2252.80;;;;;;5096622;28;20103;-83
2021/04/21 06:25:57;;;;;;;53.40;32.63;;;230.50;2252.80;;;;;;5095100;28;20024;-84
2021/04/21 06:28:23;;;;;;;36.03;25.75;;;230.50;2252.80;;;;;;5095997;28;20028;-83
2021/04/21 06:31:11;;;;;;;45.50;33.67;;;230.50;2252.80;;;;;;5095629;28;20402;-83
2021/04/21 06:33:42;;;;;;;46.95;32.35;;;230.50;2252.80;;;;;;5095314;28;20020;-83
2021/04/21 06:36:10;;;;;;;50.25;33.53;;;230.60;2252.80;;;;;;5095225;28;20032;-84
2021/04/21 06:38:38;;;;;;;51.00;34.78;;;230.60;2252.80;;;;;;5095132;28;20024;-82
2021/04/21 06:41:04;;;;;;;52.00;32.83;;;230.70;2252.80;;;;;;5095102;28;20375;-82
2021/04/21 06:43:35;;;;;;;45.15;28.17;;;230.90;2252.80;;;;;;5093952;28;20027;-83
2021/04/21 06:46:01;;;;;;;47.97;32.53;;;230.90;2252.80;;;;;;5094872;28;20035;-83
2021/04/21 06:48:28;;;;;;;132.90;85.60;;;256.00;2252.80;;;;;;5095290;28;20044;-83
2021/04/21 06:51:05;;;;;;;135.27;88.65;;;230.90;2252.80;;;;;;5094887;28;20098;-82
2021/04/21 06:53:31;;;;;;;124.15;86.97;;;231.00;2252.80;;;;;;5094800;28;20027;-85
2021/04/21 06:55:57;;;;;;;82.40;60.92;;;231.10;2252.80;;;;;;5095229;28;20031;-82
2021/04/21 06:58:25;;;;;;;88.25;61.70;;;231.10;2252.80;;;;;;5094886;28;20452;-82
2021/04/21 07:00:51;;;;;;;62.17;45.40;;;231.10;2252.80;;;;;;5094513;28;20036;-82
2021/04/21 07:03:19;;;;;;;64.22;46.80;;;231.20;2252.80;;;;;;5094628;28;20142;-83
2021/04/21 07:05:46;;;;;;;50.15;39.20;;;231.20;2252.80;;;;;;5094673;28;20030;-82
2021/04/21 07:08:13;;;;;;;43.35;32.33;;;231.20;2252.80;;;;;;5095939;28;20375;-83
2021/04/21 07:10:53;;;;;;;40.17;27.60;;;231.30;2252.80;;;;;;5094458;28;20028;-82
2021/04/21 07:13:21;;;;;;;39.08;26.05;;;231.30;2252.80;;;;;;5093407;28;20046;-82
2021/04/21 07:15:55;;;;;;;42.45;28.90;;;256.00;2252.80;;;;;;5094402;28;20059;-82
2021/04/21 07:18:33;;;;;;;43.55;34.05;;;256.00;2252.80;;;;;;5093745;28;20024;-83
2021/04/21 07:21:01;;;;;;;36.53;26.08;;;256.20;2252.80;;;;;;5094157;28;20028;-81
2021/04/21 07:23:28;;;;;;;67.93;52.00;;;256.50;2252.80;;;;;;5094101;28;20056;-82
2021/04/21 07:25:55;;;;;;;31.98;22.40;;;256.60;2252.80;;;;;;5093609;28;20036;-82
2021/04/21 07:28:23;;;;;;;26.70;20.15;;;256.60;2252.80;;;;;;5094501;28;20048;-81
2021/04/21 07:30:53;;;;;;;35.47;26.92;;;256.70;2252.80;;;;;;5094214;28;20551;-81
2021/04/21 07:33:35;;;;;;;32.22;24.30;;;256.90;2252.80;;;;;;5094381;28;20035;-81
2021/04/21 07:36:22;;;;;;;30.83;23.98;;;281.70;2278.40;;;;;;5092318;28;20051;-80
2021/04/21 07:38:54;;;;;;;30.50;21.23;;;281.90;2278.40;;;;;;5094047;28;20035;-81
2021/04/21 07:41:37;;;;;;;39.05;27.88;;;282.00;2278.40;;;;;;5093125;28;20027;-80
2021/04/21 07:44:04;;;;;;;;;;;282.10;2278.40;;;;;;5095466;28;20028;-81
2021/04/21 07:46:30;;;;;;;56.00;39.78;;;282.30;2278.40;;;;;;5093839;28;19912;-80
2021/04/21 07:48:56;;;;;;;37.83;29.55;;;282.40;2278.40;;;;;;5093772;28;20031;-80
2021/04/21 07:51:24;;;;;;;28.48;22.77;;;307.20;2304.00;;;;;;5093560;28;20028;-79
2021/04/21 07:54:02;;;;;;;34.85;27.00;;;307.40;2304.00;;;;;;5093737;28;20116;-81
2021/04/21 07:56:37;;;;;;;27.08;19.52;;;307.70;2304.00;;;;;;5094101;28;20187;-79
2021/04/21 07:59:33;;;;;;;23.55;17.98;;;307.90;2304.00;;;;;;5094214;28;20020;-79
2021/04/21 08:02:15;;;;;;;17.45;13.52;;;307.90;2304.00;;;;;;5093350;28;20486;-81
2021/04/21 08:04:55;;;;;;;20.58;13.77;;;308.10;2304.00;;;;;;5093512;28;20028;-81
2021/04/21 08:07:36;;;;;;;15.52;13.13;;;332.80;2329.60;;;;;;5094096;28;20348;-80
2021/04/21 08:10:24;;;;;;;20.20;15.95;;;333.10;2329.60;;;;;;5094072;28;20024;-80
2021/04/21 08:12:55;;;;;;;18.98;15.18;;;333.10;2329.60;;;;;;5093236;28;20536;-80
2021/04/21 08:15:28;;;;;;;20.88;15.35;;;333.20;2329.60;;;;;;5094027;28;20020;-79
2021/04/21 08:17:57;;;;;;;18.35;15.07;;;333.20;2329.60;;;;;;5093174;28;20032;-80
2021/04/21 08:20:31;;;;;;;19.40;14.05;;;333.10;2329.60;;;;;;5094328;28;20467;-80
2021/04/21 08:22:59;;;;;;;17.02;11.85;;;332.90;2329.60;;;;;;5093411;28;20061;-81
2021/04/21 08:25:26;;;;;;;17.58;13.65;;;308.10;2304.00;;;;;;5092684;28;20024;-79
2021/04/21 08:27:52;;;;;;;20.40;12.93;;;308.10;2304.00;;;;;;5092496;28;20517;-82
2021/04/21 08:30:18;;;;;;;20.95;14.27;;;332.80;2329.60;;;;;;5110061;28;20027;-81
2021/04/21 08:32:44;;;;;;;15.82;12.52;;;332.90;2329.60;;;;;;5093506;28;20024;-81
2021/04/21 08:35:12;;;;;;;14.18;11.50;;;333.20;2329.60;;;;;;5094125;28;20031;-82
2021/04/21 08:37:39;;;;;;;23.73;13.35;;;333.20;2329.60;;;;;;5109094;28;20070;-80
2021/04/21 08:40:05;;;;;;;17.27;10.85;;;333.70;2329.60;;;;;;5109695;28;20021;-78
2021/04/21 08:42:32;;;;;;;23.02;13.73;;;359.00;2329.60;;;;;;5093651;28;20024;-74
2021/04/21 08:44:58;;;;;;;17.25;12.43;;;359.10;2329.60;;;;;;5091515;28;20028;-74
2021/04/21 08:47:25;;;;;;;14.70;11.07;;;359.00;2329.60;;;;;;5092325;28;20369;-75
2021/04/21 08:49:55;;;;;;;15.50;10.88;;;359.10;2329.60;;;;;;5092606;28;20365;-77
2021/04/21 08:52:24;;;;;;;15.27;11.88;;;359.20;2329.60;;;;;;5092038;28;20025;-78
2021/04/21 08:54:54;;;;;;;20.00;13.73;;;359.00;2329.60;;;;;;5092785;28;20106;-77
2021/04/21 08:57:20;;;;;;;14.65;11.02;;;359.10;2329.60;;;;;;5092534;28;20089;-78
2021/04/21 08:59:47;;;;;;;16.67;12.55;;;359.00;2329.60;;;;;;5092279;28;20055;-79
2021/04/21 09:02:15;;;;;;;18.17;10.13;;;384.00;2329.60;;;;;;5093744;28;20480;-80
2021/04/21 09:04:42;;;;;;;20.45;11.05;;;384.30;2329.60;;;;;;5093119;28;20410;-79
2021/04/21 09:07:08;;;;;;;12.05;8.77;;;384.50;2329.60;;;;;;5092247;28;20032;-78
2021/04/21 09:09:35;;;;;;;9.88;6.85;;;384.70;2304.00;;;;;;5093361;28;20038;-76
2021/04/21 09:12:03;;;;;;;10.77;8.02;;;384.50;2022.40;;;;;;5092601;28;20028;-79
2021/04/21 09:14:29;;;;;;;17.00;13.95;;;384.60;1971.20;;;;;;5092459;28;20028;-79
2021/04/21 09:16:56;;;;;;;12.93;9.25;;;384.80;2176.00;;;;;;5092569;28;20028;-81
2021/04/21 09:19:22;;;;;;;17.10;11.15;;;410.00;2150.40;;;;;;5092332;28;20379;-80
2021/04/21 09:22:06;;;;;;;17.92;11.32;;;409.90;2073.60;;;;;;5092447;28;20020;-80
2021/04/21 09:24:36;;;;;;;12.10;9.82;;;410.10;2099.20;;;;;;5092935;28;20027;-79
2021/04/21 09:27:24;;;;;;;12.88;8.18;;;410.30;2022.40;;;;;;5092528;28;20032;-77
2021/04/21 09:29:49;;;;;;;14.85;10.15;;;410.30;1868.80;;;;;;5092654;28;20166;-82
2021/04/21 09:32:17;;;;;;;9.10;7.55;;;410.50;2073.60;;;;;;5092570;28;20070;-82
2021/04/21 09:34:55;;;;;;;10.07;7.57;;;435.20;2124.80;;;;;;5092316;28;20110;-80
2021/04/21 09:37:25;;;;;;;8.13;6.63;;;435.60;2227.20;;;;;;5093237;28;20038;-82
2021/04/21 09:39:51;;;;;;;7.00;5.70;;;435.50;1920.00;;;;;;5092786;28;20024;-80
2021/04/21 09:42:25;;;;;;;11.48;8.52;;;435.60;1945.60;;;;;;5092083;28;20028;-82
2021/04/21 09:44:52;;;;;;;11.75;8.45;;;435.90;1971.20;;;;;;5092466;28;20031;-80
2021/04/21 09:47:19;;;;;;;10.25;6.80;;;436.10;1868.80;;;;;;5093195;28;20463;-80
2021/04/21 09:49:45;;;;;;;9.68;5.32;;;460.80;1817.60;;;;;;5096096;28;20032;-80
2021/04/21 09:52:12;;;;;;;7.53;5.22;;;460.80;1664.00;;;;;;5094069;28;20438;-82
2021/04/21 09:54:46;;;;;;;6.65;5.25;;;460.80;1766.40;;;;;;5108287;28;20465;-82
2021/04/21 09:57:20;;;;;;;8.65;6.63;;;435.90;1638.40;;;;;;5092360;28;20119;-81
2021/04/21 10:00:06;;;;;;;9.63;6.85;;;461.10;1766.40;;;;;;5113404;28;20024;-80
2021/04/21 10:02:33;;;;;;;9.18;7.18;;;461.00;1612.80;;;;;;5110776;28;20399;-80
2021/04/21 10:05:33;;;;;;;10.07;7.57;;;461.70;1740.80;;;;;;5096739;28;20027;-81
2021/04/21 10:08:12;;;;;;;10.75;6.70;;;486.80;1740.80;;;;;;5091574;28;20048;-80
2021/04/21 10:10:39;;;;;;;8.23;5.07;;;486.80;1664.00;;;;;;5095525;28;20529;-79
2021/04/21 10:13:16;;;;;;;8.75;6.68;;;486.50;1459.20;;;;;;5095078;28;20484;-80
2021/04/21 10:15:43;;;;;;;12.95;6.15;;;461.70;1638.40;;;;;;5095728;28;20081;-78
2021/04/21 10:18:12;;;;;;;8.35;6.00;;;461.40;1689.60;;;;;;5094172;28;20031;-82
2021/04/21 10:20:39;;;;;;;12.68;8.68;;;461.00;1766.40;;;;;;5094175;28;20024;-82
2021/04/21 10:23:06;;;;;;;9.57;7.35;;;460.90;1766.40;;;;;;5094879;28;20049;-80
2021/04/21 10:25:33;;;;;;;15.88;10.93;;;436.10;1689.60;;;;;;5094252;28;20528;-81
2021/04/21 10:27:59;;;;;;;12.02;7.68;;;435.90;1715.20;;;;;;5094532;28;20056;-82
2021/04/21 10:30:26;;;;;;;7.53;5.85;;;435.80;1740.80;;;;;;5108744;28;20081;-83
2021/04/21 10:32:52;;;;;;;15.40;10.23;;;435.60;1740.80;;;;;;5108797;28;20028;-80
2021/04/21 10:35:19;;;;;;;13.43;7.28;;;435.70;1817.60;;;;;;5096334;28;20097;-82
2021/04/21 10:37:45;;;;;;;11.77;9.00;;;436.10;1740.80;;;;;;5091021;28;20070;-79
2021/04/21 10:40:21;;;;;;;18.08;13.48;;;435.90;1843.20;;;;;;5094960;28;20028;-80
2021/04/21 10:42:49;;;;;;;16.08;12.60;;;435.80;1868.80;;;;;;5091166;28;20028;-82
2021/04/21 10:45:18;;;;;;;22.17;15.82;;;435.70;1868.80;;;;;;5094906;28;20375;-81
2021/04/21 10:47:50;;;;;;;20.05;14.23;;;435.60;1971.20;;;;;;5094415;28;20032;-83
2021/04/21 10:50:38;;;;;;;18.02;12.07;;;435.60;1971.20;;;;;;5093953;28;20080;-79
2021/04/21 10:53:04;;;;;;;19.42;12.05;;;435.50;1945.60;;;;;;5085987;28;20040;-79
2021/04/21 10:55:36;;;;;;;20.35;15.35;;;436.10;1971.20;;;;;;5093608;28;20028;-76
2021/04/21 10:58:09;;;;;;;20.73;14.43;;;436.10;1971.20;;;;;;5094349;28;20027;-79
2021/04/21 11:00:38;;;;;;;21.13;11.20;;;435.90;1920.00;;;;;;5091098;28;20308;-79
2021/04/21 11:03:12;;;;;;;16.92;10.35;;;435.70;1843.20;;;;;;5110199;28;20044;-79
2021/04/21 11:05:41;;;;;;;20.10;11.55;;;435.50;1894.40;;;;;;5109487;28;20035;-78
2021/04/21 11:08:24;;;;;;;15.07;10.75;;;435.30;1868.80;;;;;;5110790;28;20028;-79
2021/04/21 11:11:02;;;;;;;21.05;8.90;;;435.20;1843.20;;;;;;5111662;28;20051;-80
2021/04/21 11:13:34;;;;;;;16.88;12.10;;;410.50;1843.20;;;;;;5095236;28;20050;-78
2021/04/21 11:16:01;;;;;;;17.13;13.43;;;410.20;1971.20;;;;;;5102263;28;20048;-77
2021/04/21 11:18:28;;;;;;;11.45;8.52;;;410.10;2124.80;;;;;;5091538;28;20052;-84
2021/04/21 11:21:06;;;;;;;8.60;7.13;;;409.90;1971.20;;;;;;5094426;28;20052;-79
2021/04/21 11:24:02;;;;;;;14.07;8.15;;;409.80;1996.80;;;;;;5098153;28;20035;-79
2021/04/21 11:26:30;;;;;;;22.85;14.30;;;409.70;1894.40;;;;;;5112530;28;20039;-79
2021/04/21 11:29:02;;;;;;;32.63;20.05;;;409.90;2022.40;;;;;;5095101;28;20020;-78
2021/04/21 11:31:43;;;;;;;20.55;14.27;;;410.20;2073.60;;;;;;5095707;28;20467;-79
2021/04/21 11:34:41;;;;;;;15.55;10.23;;;410.30;2022.40;;;;;;5094939;28;20028;-78
2021/04/21 11:37:15;;;;;;;22.45;13.05;;;410.40;2022.40;;;;;;5095627;28;20379;-79
2021/04/21 11:39:41;;;;;;;24.30;14.45;;;435.20;2099.20;;;;;;5096462;28;20375;-80
2021/04/21 11:42:35;;;;;;;23.08;16.33;;;435.40;2073.60;;;;;;5096328;28;20028;-78
2021/04/21 11:45:18;;;;;;;24.75;17.95;;;435.40;1996.80;;;;;;5099240;28;20024;-78
2021/04/21 11:48:03;;;;;;;16.58;11.02;;;435.80;1996.80;;;;;;5096229;28;20464;-79
2021/04/21 11:50:35;;;;;;;22.73;18.55;;;460.90;1894.40;;;;;;5096546;28;20024;-78
2021/04/21 11:53:07;;;;;;;12.43;8.40;;;461.10;1843.20;;;;;;5111045;28;20050;-78
2021/04/21 11:55:45;;;;;;;11.63;8.50;;;461.50;1689.60;;;;;;5095686;28;20380;-83
2021/04/21 11:58:12;;;;;;;9.30;6.72;;;486.70;1689.60;;;;;;5098575;28;20115;-83
2021/04/21 12:00:45;;;;;;;11.32;9.25;;;487.10;1664.00;;;;;;5093036;28;20533;-83
2021/04/21 12:03:16;;;;;;;26.73;24.13;;;487.10;1561.60;;;;;;5091979;28;20044;-82
2021/04/21 12:05:43;;;;;;;14.70;12.07;;;487.20;1587.20;;;;;;5093423;28;20032;-83
2021/04/21 12:08:10;;;;;;;10.10;8.52;;;512.10;1484.80;;;;;;5093563;28;20054;-83
2021/04/21 12:10:40;;;;;;;15.88;10.13;;;487.00;1510.40;;;;;;5094115;28;20028;-83
2021/04/21 12:13:23;;;;;;;9.65;6.38;;;487.00;1459.20;;;;;;5094413;28;20047;-83
2021/04/21 12:15:53;;;;;;;11.68;7.25;;;487.10;1536.00;;;;;;5093465;28;20032;-83
2021/04/21 12:18:34;;;;;;;15.20;11.05;;;486.80;1536.00;;;;;;5093940;28;20118;-84
2021/04/21 12:21:14;;;;;;;9.60;6.97;;;461.70;1561.60;;;;;;5095419;28;20024;-82
2021/04/21 12:23:41;;;;;;;5.40;4.30;;;461.40;1612.80;;;;;;5093640;28;20024;-82
2021/04/21 12:26:17;;;;;;;8.35;5.82;;;460.80;1664.00;;;;;;5094932;28;20029;-81
2021/04/21 12:28:48;;;;;;;6.88;4.80;;;435.90;1638.40;;;;;;5093554;28;20024;-82
2021/04/21 12:31:15;;;;;;;8.40;4.88;;;435.60;1638.40;;;;;;5094775;28;20033;-81
2021/04/21 12:33:41;;;;;;;7.80;5.70;;;435.50;1664.00;;;;;;5094137;28;20118;-79
2021/04/21 12:36:07;;;;;;;7.82;5.82;;;435.20;1715.20;;;;;;5091836;28;20028;-79